Time;durP1;ratioP1;P1;durP2;ratioP2;P2;SDS_P1;SDS_P2;PMS_P1;PMS_P2;Temp;Humidity;BMP_temperature;BMP_pressure;BME280_temperature;BME280_humidity;BME280_pressure;Samples;Min_cycle;Max_cycle;Signal;HPM_P1;HPM_P2
2021/05/03 00:01:35;;;;;;;;;;;4.20;99.90;;;;;;5049521;28;19931;-77
2021/05/03 00:04:00;;;;;;;;;;;4.20;99.90;;;;;;5051000;28;19913;-77
2021/05/03 00:06:26;;;;;;;;;;;4.20;99.70;;;;;;5049980;28;19920;-77
2021/05/03 00:08:51;;;;;;;;;;;4.20;99.90;;;;;;5031153;28;20357;-76
2021/05/03 00:11:17;;;;;;;;;;;4.10;99.90;;;;;;5050810;28;20058;-77
2021/05/03 00:13:42;;;;;;;;;;;4.10;99.90;;;;;;5049025;28;19916;-77
2021/05/03 00:16:10;;;;;;;;;;;4.10;99.90;;;;;;5049866;28;19942;-77
2021/05/03 00:18:36;;;;;;;;;;;4.00;99.90;;;;;;5049786;28;20301;-77
2021/05/03 00:21:01;;;;;;;;;;;4.00;99.90;;;;;;5030441;28;19940;-77
2021/05/03 00:23:29;;;;;;;;;;;4.00;99.90;;;;;;5013463;28;19979;-77
2021/05/03 00:25:57;;;;;;;;;;;3.90;99.90;;;;;;5035242;28;19917;-77
2021/05/03 00:28:23;;;;;;;;;;;3.90;99.90;;;;;;5029225;28;19921;-77
2021/05/03 00:30:49;;;;;;;;;;;3.90;99.90;;;;;;5030754;28;19927;-77
2021/05/03 00:33:14;;;;;;;;;;;3.90;99.90;;;;;;5031551;28;19920;-77
2021/05/03 00:35:40;;;;;;;;;;;3.80;99.90;;;;;;5034376;28;19928;-77
2021/05/03 00:38:05;;;;;;;;;;;3.80;99.90;;;;;;5049991;28;19995;-77
2021/05/03 00:40:31;;;;;;;;;;;3.80;99.90;;;;;;5048613;28;19924;-77
2021/05/03 00:42:57;;;;;;;;;;;3.70;99.90;;;;;;5048746;28;19952;-77
2021/05/03 00:45:23;;;;;;;;;;;3.80;99.90;;;;;;5049312;28;20375;-77
2021/05/03 00:47:48;;;;;;;;;;;3.70;99.90;;;;;;5047458;28;19940;-77
2021/05/03 00:50:17;;;;;;;;;;;3.70;99.90;;;;;;5030769;28;21794;-77
2021/05/03 00:52:42;;;;;;;;;;;3.60;99.90;;;;;;5048872;28;19917;-77
2021/05/03 00:55:08;;;;;;;;;;;3.60;99.90;;;;;;5047315;28;19947;-77
2021/05/03 00:57:34;;;;;;;;;;;3.60;99.90;;;;;;5030708;28;20003;-77
2021/05/03 00:59:59;;;;;;;;;;;3.60;99.90;;;;;;5048864;28;19932;-77
2021/05/03 01:02:25;;;;;;;;;;;3.60;99.90;;;;;;5015179;28;20394;-78
2021/05/03 01:04:50;;;;;;;;;;;3.60;99.90;;;;;;5048280;28;19931;-77
2021/05/03 01:07:16;;;;;;;;;;;3.50;99.90;;;;;;5048997;28;19917;-77
2021/05/03 01:09:42;;;;;;;;;;;3.40;99.90;;;;;;5015647;28;19921;-77
2021/05/03 01:12:10;;;;;;;;;;;3.40;99.90;;;;;;5048745;28;19927;-77
2021/05/03 01:14:38;;;;;;;;;;;3.40;99.90;;;;;;5048834;28;20365;-77
2021/05/03 01:17:04;;;;;;;;;;;3.40;99.90;;;;;;5030699;28;19931;-77
2021/05/03 01:19:30;;;;;;;;;;;3.40;99.90;;;;;;5028423;28;19928;-76
2021/05/03 01:21:58;;;;;;;;;;;3.40;99.90;;;;;;5028997;28;19920;-77
2021/05/03 01:24:23;;;;;;;;;;;3.40;99.90;;;;;;5047257;28;19978;-76
2021/05/03 01:26:49;;;;;;;;;;;3.40;99.90;;;;;;5028962;28;20374;-76
2021/05/03 01:29:17;;;;;;;;;;;3.40;99.90;;;;;;5047604;28;19925;-76
2021/05/03 01:31:46;;;;;;;;;;;3.30;99.90;;;;;;5047845;28;20611;-76
2021/05/03 01:34:11;;;;;;;;;;;3.30;99.90;;;;;;5047651;28;19917;-76
2021/05/03 01:36:37;;;;;;;;;;;3.30;99.90;;;;;;5027041;28;20582;-76
2021/05/03 01:39:05;;;;;;;;;;;3.30;99.90;;;;;;5003207;28;19931;-76
2021/05/03 01:41:30;;;;;;;;;;;3.30;99.90;;;;;;5030546;28;19922;-76
2021/05/03 01:43:56;;;;;;;;;;;3.30;99.90;;;;;;5027764;28;19939;-76
2021/05/03 01:46:22;;;;;;;;;;;3.20;99.90;;;;;;5047751;28;19921;-76
2021/05/03 01:48:47;;;;;;;;;;;3.20;99.90;;;;;;5013341;28;20009;-76
2021/05/03 01:51:13;;;;;;;;;;;3.20;99.90;;;;;;5029933;28;19920;-76
2021/05/03 01:53:38;;;;;;;;;;;3.20;99.90;;;;;;5028649;28;19991;-76
2021/05/03 01:56:04;;;;;;;;;;;3.10;99.90;;;;;;5047933;28;19931;-77
2021/05/03 01:58:29;;;;;;;;;;;3.00;99.90;;;;;;5028581;28;20358;-76
2021/05/03 02:00:57;;;;;;;;;;;3.10;99.90;;;;;;5029485;28;19956;-76
2021/05/03 02:03:26;;;;;;;;;;;3.10;99.90;;;;;;5047163;28;19921;-76
2021/05/03 02:05:54;;;;;;;;;;;3.00;99.90;;;;;;5048189;28;19921;-76
2021/05/03 02:08:20;;;;;;;;;;;3.00;99.90;;;;;;5047242;28;20023;-76
2021/05/03 02:10:46;;;;;;;;;;;3.00;99.90;;;;;;5047357;28;20380;-76
2021/05/03 02:13:14;;;;;;;;;;;2.90;99.90;;;;;;5029008;28;19920;-76
2021/05/03 02:15:39;;;;;;;;;;;2.90;99.90;;;;;;5030608;28;21510;-77
2021/05/03 02:18:05;;;;;;;;;;;2.90;99.90;;;;;;5028850;28;19931;-77
2021/05/03 02:20:33;;;;;;;;;;;2.80;99.90;;;;;;5047827;28;19987;-77
2021/05/03 02:23:02;;;;;;;;;;;2.80;99.90;;;;;;5028453;28;19920;-77
2021/05/03 02:25:27;;;;;;;;;;;2.80;99.90;;;;;;5046767;28;19913;-76
2021/05/03 02:27:53;;;;;;;;;;;2.80;99.90;;;;;;5029247;28;20444;-76
2021/05/03 02:30:18;;;;;;;;;;;2.80;99.90;;;;;;5046794;28;19961;-76
2021/05/03 02:32:47;;;;;;;;;;;2.80;99.90;;;;;;5030196;28;20725;-76
2021/05/03 02:35:15;;;;;;;;;;;2.80;99.90;;;;;;5047178;28;19955;-76
2021/05/03 02:37:40;;;;;;;;;;;2.80;99.90;;;;;;5047508;28;19927;-77
2021/05/03 02:40:06;;;;;;;;;;;2.80;99.90;;;;;;5015464;28;20384;-77
2021/05/03 02:42:32;;;;;;;;;;;2.80;99.90;;;;;;5046980;28;19936;-77
2021/05/03 02:44:57;;;;;;;;;;;2.80;99.90;;;;;;5017536;28;19921;-77
2021/05/03 02:47:23;;;;;;;;;;;2.80;99.90;;;;;;5049325;28;20079;-76
2021/05/03 02:49:48;;;;;;;;;;;2.90;99.90;;;;;;5046832;28;20376;-76
2021/05/03 02:52:16;;;;;;;;;;;2.90;99.90;;;;;;5029441;28;19921;-76
2021/05/03 02:54:44;;;;;;;;;;;2.90;99.90;;;;;;5046572;28;19940;-76
2021/05/03 02:57:09;;;;;;;;;;;2.90;99.90;;;;;;5049021;28;19917;-76
2021/05/03 02:59:37;;;;;;;;;;;2.90;99.90;;;;;;5049788;28;19927;-76
2021/05/03 03:02:03;;;;;;;;;;;3.00;99.90;;;;;;5050939;28;19917;-76
2021/05/03 03:04:28;;;;;;;;;;;3.00;99.90;;;;;;5031208;28;19927;-76
2021/05/03 03:06:56;;;;;;;;;;;2.90;99.90;;;;;;5050543;28;19920;-76
2021/05/03 03:09:22;;;;;;;;;;;2.90;99.90;;;;;;5050560;28;20024;-76
2021/05/03 03:11:47;;;;;;;;;;;2.90;99.90;;;;;;5050076;28;20004;-76
2021/05/03 03:14:13;;;;;;;;;;;2.90;99.90;;;;;;5050554;28;19917;-76
2021/05/03 03:16:39;;;;;;;;;;;2.90;99.90;;;;;;5022081;28;19920;-77
2021/05/03 03:19:05;;;;;;;;;;;2.90;99.90;;;;;;5017497;28;19935;-76
2021/05/03 03:21:30;;;;;;;;;;;2.80;99.90;;;;;;5016053;28;19917;-76
2021/05/03 03:23:56;;;;;;;;;;;2.80;99.90;;;;;;5021837;28;19921;-76
2021/05/03 03:26:21;;;;;;;;;;;2.80;99.90;;;;;;5050095;28;19917;-76
2021/05/03 03:28:46;;;;;;;;;;;2.70;99.90;;;;;;5049876;28;19973;-77
2021/05/03 03:31:12;;;;;;;;;;;2.70;99.90;;;;;;5048721;28;20338;-76
2021/05/03 03:33:37;;;;;;;;;;;2.60;99.90;;;;;;5050693;28;19956;-77
2021/05/03 03:36:04;;;;;;;;;;;2.60;99.90;;;;;;5050189;28;19967;-77
2021/05/03 03:38:29;;;;;;;;;;;2.50;99.90;;;;;;5051361;28;19982;-77
2021/05/03 03:40:55;;;;;;;;;;;2.40;99.90;;;;;;5048336;28;20019;-77
2021/05/03 03:43:20;;;;;;;;;;;2.40;99.90;;;;;;5049925;28;20066;-77
2021/05/03 03:45:46;;;;;;;;;;;2.40;99.90;;;;;;5050170;28;20011;-77
2021/05/03 03:48:13;;;;;;;;;;;2.30;99.90;;;;;;5050616;28;19959;-77
2021/05/03 03:50:39;;;;;;;;;;;2.30;99.90;;;;;;5031393;28;19921;-77
2021/05/03 03:53:07;;;;;;;;;;;2.30;99.90;;;;;;5050346;28;19969;-77
2021/05/03 03:55:33;;;;;;;;;;;2.20;99.90;;;;;;5049753;28;19921;-77
2021/05/03 03:57:58;;;;;;;;;;;2.20;99.90;;;;;;5048050;28;19921;-77
2021/05/03 04:00:24;;;;;;;;;;;2.20;99.90;;;;;;5033128;28;19921;-78
2021/05/03 04:02:50;;;;;;;;;;;2.10;99.90;;;;;;5030376;28;19926;-78
2021/05/03 04:13:34;;;;;;;;;;;2.30;99.90;;;;;;5022936;28;20862;-78
2021/05/03 04:23:58;;;;;;;;;;;2.10;99.90;;;;;;5048507;28;19925;-77
2021/05/03 04:26:24;;;;;;;;;;;2.20;99.90;;;;;;5032019;28;19931;-78
2021/05/03 04:28:50;;;;;;;;;;;2.20;99.90;;;;;;5048548;28;20417;-77
2021/05/03 04:31:16;;;;;;;;;;;2.20;99.90;;;;;;5031337;28;19925;-77
2021/05/03 04:33:42;;;;;;;;;;;2.20;99.90;;;;;;5030197;28;20258;-78
2021/05/03 04:36:07;;;;;;;;;;;2.20;99.90;;;;;;5030964;28;19920;-78
2021/05/03 04:38:33;;;;;;;;;;;2.20;99.90;;;;;;5031825;28;19920;-78
2021/05/03 04:40:58;;;;;;;;;;;2.30;99.90;;;;;;5029262;28;19999;-78
2021/05/03 04:43:26;;;;;;;;;;;2.30;99.90;;;;;;5030672;28;19921;-78
2021/05/03 04:45:52;;;;;;;;;;;2.30;99.90;;;;;;5048994;28;20016;-78
2021/05/03 04:48:18;;;;;;;;;;;2.30;99.90;;;;;;5016540;28;19917;-78
2021/05/03 04:50:45;;;;;;;;;;;2.30;99.90;;;;;;5049439;28;19932;-78
2021/05/03 04:53:11;;;;;;;;;;;2.40;99.90;;;;;;5051365;28;19948;-77
2021/05/03 04:55:37;;;;;;;;;;;2.40;99.90;;;;;;5028067;28;20027;-78
2021/05/03 04:58:02;;;;;;;;;;;2.50;99.90;;;;;;5015962;28;19968;-78
2021/05/03 05:00:28;;;;;;;;;;;2.50;99.90;;;;;;5049660;28;19964;-79
2021/05/03 05:02:53;;;;;;;;;;;2.50;99.90;;;;;;5030169;28;19916;-79
2021/05/03 05:05:19;;;;;;;;;;;2.60;99.90;;;;;;5050302;28;20630;-77
2021/05/03 05:07:44;;;;;;;;;;;2.70;99.90;;;;;;5020599;28;19959;-78
2021/05/03 05:10:14;;;;;;;;;;;2.70;99.90;;;;;;5007731;28;19975;-77
2021/05/03 05:12:40;;;;;;;;;;;2.80;99.90;;;;;;4989584;28;20278;-77
2021/05/03 05:15:06;;;;;;;;;;;2.80;99.90;;;;;;5007817;28;19914;-77
2021/05/03 05:17:31;;;;;;;;;;;2.90;99.90;;;;;;5007112;28;19932;-77
2021/05/03 05:19:57;;;;;;;;;;;2.90;99.90;;;;;;5006018;28;20011;-77
2021/05/03 05:22:22;;;;;;;;;;;3.00;99.90;;;;;;5007151;28;20422;-77
2021/05/03 05:24:48;;;;;;;;;;;3.00;99.90;;;;;;5008837;28;19956;-77
2021/05/03 05:27:13;;;;;;;;;;;3.10;99.90;;;;;;5023567;28;19921;-77
2021/05/03 05:29:39;;;;;;;;;;;3.10;99.90;;;;;;5007307;28;19917;-77
2021/05/03 05:32:07;;;;;;;;;;;3.20;99.90;;;;;;5008068;28;19921;-77
2021/05/03 05:34:32;;;;;;;;;;;3.30;99.90;;;;;;5006208;28;19963;-77
2021/05/03 05:36:58;;;;;;;;;;;3.40;99.90;;;;;;5007668;28;19930;-77
2021/05/03 05:39:23;;;;;;;;;;;3.40;99.90;;;;;;5006082;28;19921;-77
2021/05/03 05:41:51;;;;;;;;;;;3.50;99.90;;;;;;5008745;28;19918;-77
2021/05/03 05:44:16;;;;;;;;;;;3.60;99.90;;;;;;5006501;28;20175;-78
2021/05/03 05:46:44;;;;;;;;;;;3.60;99.90;;;;;;5008198;28;20020;-77
2021/05/03 05:49:12;;;;;;;;;;;3.70;99.90;;;;;;5007851;28;19948;-77
2021/05/03 05:51:38;;;;;;;;;;;3.80;99.90;;;;;;5008707;28;19922;-77
2021/05/03 05:54:03;;;;;;;;;;;3.90;99.90;;;;;;5006678;28;19918;-77
2021/05/03 05:56:31;;;;;;;;;;;3.90;99.90;;;;;;5005358;28;19921;-77
2021/05/03 05:58:57;;;;;;;;;;;4.00;99.90;;;;;;5007026;28;20427;-77
2021/05/03 06:01:26;;;;;;;;;;;4.10;99.90;;;;;;5006807;28;19931;-77
2021/05/03 06:03:52;;;;;;;;;;;4.20;99.90;;;;;;5007359;28;19931;-77
2021/05/03 06:06:18;;;;;;;;;;;4.30;99.90;;;;;;5023287;28;19921;-77
2021/05/03 06:08:43;;;;;;;;;;;4.40;99.90;;;;;;5035426;28;20070;-77
2021/05/03 06:11:09;;;;;;;;;;;4.40;99.90;;;;;;5014713;28;19995;-77
2021/05/03 06:13:34;;;;;;;;;;;4.50;99.90;;;;;;5028690;28;19920;-77
2021/05/03 06:16:02;;;;;;;;;;;4.60;99.90;;;;;;5028678;28;20131;-77
2021/05/03 06:18:28;;;;;;;;;;;4.70;99.90;;;;;;5046290;28;20967;-77
2021/05/03 06:20:54;;;;;;;;;;;4.80;99.90;;;;;;5042859;28;19928;-77
2021/05/03 06:23:20;;;;;;;;;;;4.90;99.90;;;;;;5046029;28;19921;-77
2021/05/03 06:25:48;;;;;;;;;;;5.10;99.90;;;;;;5014849;28;19928;-77
2021/05/03 06:28:22;;;;;;;;;;;5.20;99.90;;;;;;5045735;28;20571;-78
2021/05/03 06:30:54;;;;;;;;;;;5.30;99.90;;;;;;5023307;28;19917;-76
2021/05/03 06:33:20;;;;;;;;;;;5.40;99.90;;;;;;5049979;28;20432;-78
2021/05/03 06:35:47;;;;;;;;;;;5.50;99.90;;;;;;5047390;28;19931;-78
2021/05/03 06:38:15;;;;;;;;;;;5.60;99.90;;;;;;5029138;28;20322;-77
2021/05/03 06:40:41;;;;;;;;;;;5.80;99.90;;;;;;5046857;28;20016;-78
2021/05/03 06:43:09;;;;;;;;;;;5.90;99.90;;;;;;5012658;28;19921;-77
2021/05/03 06:45:37;;;;;;;;;;;6.00;99.90;;;;;;5047194;28;19916;-76
2021/05/03 06:48:03;;;;;;;;;;;6.00;98.90;;;;;;5047968;28;19921;-82
2021/05/03 06:50:28;;;;;;;;;;;6.20;99.90;;;;;;5047079;28;20286;-78
2021/05/03 06:52:54;;;;;;;;;;;6.30;99.90;;;;;;5030464;28;20027;-78
2021/05/03 06:55:19;;;;;;;;;;;6.40;99.70;;;;;;5047131;28;19924;-79
2021/05/03 06:57:45;;;;;;;;;;;6.50;99.00;;;;;;5031923;28;19917;-78
2021/05/03 07:00:11;;;;;;;;;;;6.60;99.90;;;;;;5037496;28;19912;-78
2021/05/03 07:02:37;;;;;;;;;;;6.70;98.60;;;;;;5046833;28;20698;-78
2021/05/03 07:05:06;;;;;;;;;;;6.80;98.60;;;;;;5030617;28;19931;-78
2021/05/03 07:07:31;;;;;;;;;;;6.90;98.00;;;;;;5023509;28;20343;-78
2021/05/03 07:09:57;;;;;;;;;;;7.00;97.10;;;;;;5046300;28;19920;-78
2021/05/03 07:12:24;;;;;;;;;;;7.10;95.90;;;;;;5029426;28;20333;-77
2021/05/03 07:14:49;;;;;;;;;;;7.30;90.40;;;;;;5028708;28;20247;-77
2021/05/03 07:17:15;;;;;;;;;;;7.40;91.00;;;;;;5029509;28;19931;-80
2021/05/03 07:19:40;;;;;;;;;;;7.50;90.80;;;;;;5028236;28;19960;-78
2021/05/03 07:22:06;;;;;;;;;;;7.60;91.60;;;;;;5045447;28;19934;-79
2021/05/03 07:24:32;;;;;;;;;;;7.60;90.80;;;;;;5026826;28;19920;-78
2021/05/03 07:26:57;;;;;;;;;;;7.70;90.90;;;;;;5045187;28;19969;-78
2021/05/03 07:29:23;;;;;;;;;;;7.80;91.60;;;;;;5027944;28;19921;-78
2021/05/03 07:31:48;;;;;;;;;;;8.00;83.70;;;;;;5046077;28;19917;-79
2021/05/03 07:34:15;;;;;;;;;;;8.10;77.00;;;;;;5046036;28;19983;-79
2021/05/03 07:36:41;;;;;;;;;;;8.20;75.50;;;;;;5029208;28;20385;-79
2021/05/03 07:39:06;;;;;;;;;;;8.40;78.50;;;;;;5045906;28;20016;-84
2021/05/03 07:41:32;;;;;;;;;;;8.50;76.20;;;;;;5016455;28;19927;-79
2021/05/03 07:44:05;;;;;;;;;;;8.60;74.30;;;;;;5044321;28;20023;-77
2021/05/03 07:46:30;;;;;;;;;;;8.70;72.40;;;;;;5044973;28;20909;-78
2021/05/03 07:48:56;;;;;;;;;;;8.80;70.60;;;;;;5045154;28;19921;-79
2021/05/03 07:51:22;;;;;;;;;;;8.90;72.10;;;;;;5045748;28;20058;-78
2021/05/03 07:53:47;;;;;;;;;;;8.90;69.90;;;;;;5044049;28;19932;-78
2021/05/03 07:56:16;;;;;;;;;;;9.00;69.00;;;;;;5046776;28;19921;-77
2021/05/03 07:58:42;;;;;;;;;;;9.20;71.10;;;;;;5045347;28;19959;-77
2021/05/03 08:01:07;;;;;;;;;;;9.30;72.00;;;;;;5011794;28;20279;-77
2021/05/03 08:03:38;;;;;;;;;;;9.40;74.50;;;;;;5045995;28;19994;-77
2021/05/03 08:06:04;;;;;;;;;;;9.50;74.30;;;;;;5046198;28;20618;-77
2021/05/03 08:08:29;;;;;;;;;;;9.70;74.80;;;;;;5045400;28;19925;-77
2021/05/03 08:10:55;;;;;;;;;;;9.80;74.90;;;;;;5046565;28;19952;-76
2021/05/03 08:13:20;;;;;;;;;;;9.90;71.10;;;;;;5047767;28;21726;-77
2021/05/03 08:15:48;;;;;;;;;;;10.10;72.90;;;;;;5012414;28;20417;-77
2021/05/03 08:18:13;;;;;;;;;;;10.10;70.40;;;;;;5047844;28;19939;-77
2021/05/03 08:20:39;;;;;;;;;;;10.20;71.30;;;;;;5047878;28;19928;-77
2021/05/03 08:23:09;;;;;;;;;;;10.30;70.60;;;;;;5048908;28;19969;-78
2021/05/03 08:25:37;;;;;;;;;;;10.30;69.40;;;;;;5047501;28;19920;-77
2021/05/03 08:28:04;;;;;;;;;;;10.50;69.30;;;;;;5045391;28;19916;-78
2021/05/03 08:30:30;;;;;;;;;;;10.50;69.70;;;;;;5044806;28;20431;-78
2021/05/03 08:32:56;;;;;;;;;;;10.50;69.70;;;;;;5044401;28;19929;-77
2021/05/03 08:35:23;;;;;;;;;;;10.60;70.10;;;;;;5044131;28;19920;-79
2021/05/03 08:37:49;;;;;;;;;;;10.50;71.80;;;;;;5045360;28;19921;-81
2021/05/03 08:40:14;;;;;;;;;;;10.60;68.60;;;;;;5044482;28;19969;-79
2021/05/03 08:42:42;;;;;;;;;;;10.60;69.90;;;;;;5045229;28;19932;-78
2021/05/03 08:45:15;;;;;;;;;;;10.80;69.40;;;;;;5045295;28;19927;-78
2021/05/03 08:47:55;;;;;;;;;;;11.00;73.10;;;;;;5046976;28;19928;-78
2021/05/03 08:50:31;;;;;;;;;;;11.00;69.60;;;;;;5045570;28;19955;-79
2021/05/03 08:53:05;;;;;;;;;;;11.20;67.90;;;;;;5027683;28;19928;-77
2021/05/03 08:55:32;;;;;;;;;;;11.40;67.30;;;;;;5031918;28;20055;-75
2021/05/03 08:57:58;;;;;;;;;;;11.30;66.50;;;;;;5047140;28;19921;-77
2021/05/03 09:00:24;;;;;;;;;;;11.40;64.20;;;;;;5046381;28;20373;-77
2021/05/03 09:02:49;;;;;;;;;;;11.40;68.80;;;;;;5028057;28;20782;-77
2021/05/03 09:05:16;;;;;;;;;;;11.50;61.00;;;;;;5029560;28;19927;-77
2021/05/03 09:07:50;;;;;;;;;;;11.20;60.50;;;;;;5045465;28;19924;-80
2021/05/03 09:10:20;;;;;;;;;;;11.40;65.30;;;;;;5045971;28;19917;-79
2021/05/03 09:12:45;;;;;;;;;;;11.50;64.40;;;;;;5046839;28;19924;-75
2021/05/03 09:15:11;;;;;;;;;;;11.60;62.70;;;;;;5047731;28;20038;-78
2021/05/03 09:17:38;;;;;;;;;;;11.50;62.30;;;;;;5045985;28;19921;-77
2021/05/03 09:20:05;;;;;;;;;;;11.70;63.30;;;;;;5046343;28;20422;-78
2021/05/03 09:22:34;;;;;;;;;;;11.90;62.70;;;;;;5045699;28;19951;-77
2021/05/03 09:25:19;;;;;;;;;;;12.00;64.20;;;;;;5028147;28;20067;-75
2021/05/03 09:27:48;;;;;;;;;;;12.20;63.00;;;;;;5046496;28;19921;-79
2021/05/03 09:30:34;;;;;;;;;;;12.40;59.80;;;;;;5026074;28;20358;-78
2021/05/03 09:33:18;;;;;;;;;;;12.40;59.00;;;;;;5027333;28;20603;-77
2021/05/03 09:35:48;;;;;;;;;;;12.40;61.40;;;;;;5025908;28;19916;-76
2021/05/03 09:38:26;;;;;;;;;;;12.60;60.60;;;;;;5027182;28;19924;-77
2021/05/03 09:41:10;;;;;;;;;;;12.70;57.30;;;;;;5046352;28;20037;-78
2021/05/03 09:43:39;;;;;;;;;;;12.60;59.10;;;;;;5045416;28;19943;-78
2021/05/03 09:46:25;;;;;;;;;;;12.80;57.20;;;;;;5046390;28;19948;-75
2021/05/03 09:48:52;;;;;;;;;;;13.00;59.10;;;;;;5045396;28;20023;-77
2021/05/03 09:51:33;;;;;;;;;;;13.00;55.30;;;;;;5027479;28;20011;-78
2021/05/03 09:54:18;;;;;;;;;;;12.90;56.70;;;;;;5012056;28;20416;-78
2021/05/03 09:56:52;;;;;;;;;;;12.70;56.90;;;;;;5045082;28;19917;-79
2021/05/03 09:59:30;;;;;;;;;;;12.90;55.50;;;;;;5025882;28;19925;-77
2021/05/03 10:01:59;;;;;;;;;;;13.00;55.20;;;;;;5044411;28;19921;-78
2021/05/03 10:04:25;;;;;;;;;;;13.00;54.50;;;;;;5026342;28;20509;-77
2021/05/03 10:06:50;;;;;;;;;;;13.20;56.80;;;;;;5046366;28;19921;-78
2021/05/03 10:09:16;;;;;;;;;;;13.30;53.90;;;;;;5044888;28;19929;-78
2021/05/03 10:11:41;;;;;;;;;;;13.30;54.20;;;;;;5043430;28;20478;-77
2021/05/03 10:14:07;;;;;;;;;;;13.40;52.20;;;;;;5026160;28;20322;-78
2021/05/03 10:16:32;;;;;;;;;;;13.40;53.80;;;;;;5027014;28;19917;-77
2021/05/03 10:18:58;;;;;;;;;;;13.50;54.80;;;;;;5045114;28;20425;-79
2021/05/03 10:21:23;;;;;;;;;;;13.50;54.20;;;;;;5044383;28;19920;-78
2021/05/03 10:23:49;;;;;;;;;;;13.70;55.20;;;;;;5026964;28;19928;-79
2021/05/03 10:26:14;;;;;;;;;;;13.50;50.30;;;;;;5024244;28;20740;-77
2021/05/03 10:29:01;;;;;;;;;;;13.40;49.90;;;;;;5028113;28;19947;-78
2021/05/03 10:31:28;;;;;;;;;;;13.50;52.10;;;;;;5044192;28;20277;-73
2021/05/03 10:33:54;;;;;;;;;;;13.90;51.60;;;;;;5045641;28;19921;-77
2021/05/03 10:36:35;;;;;;;;;;;13.80;50.70;;;;;;5012516;28;19927;-78
2021/05/03 10:39:01;;;;;;;;;;;13.70;52.70;;;;;;5029080;28;20330;-78
2021/05/03 10:41:33;;;;;;;;;;;13.80;53.80;;;;;;5017850;28;20058;-79
2021/05/03 10:44:09;;;;;;;;;;;13.90;51.90;;;;;;5029331;28;19997;-78
2021/05/03 10:49:11;;;;;;;;;;;13.80;53.80;;;;;;5045328;28;19921;-78
2021/05/03 10:55:00;;;;;;;;;;;13.60;50.50;;;;;;5044987;28;20419;-86
2021/05/03 10:57:28;;;;;;;;;;;13.00;49.80;;;;;;5042537;28;19983;-79
2021/05/03 10:59:58;;;;;;;;;;;13.10;53.00;;;;;;5024026;28;19928;-78
2021/05/03 11:02:36;;;;;;;;;;;13.00;53.50;;;;;;5042744;28;20042;-78
2021/05/03 11:05:27;;;;;;;;;;;13.10;55.60;;;;;;5045800;28;19921;-78
2021/05/03 11:08:05;;;;;;;;;;;13.10;54.10;;;;;;5032611;28;20008;-78
2021/05/03 11:10:52;;;;;;;;;;;13.20;52.20;;;;;;5044255;28;19921;-78
2021/05/03 11:13:36;;;;;;;;;;;13.30;53.80;;;;;;5044003;28;19928;-78
2021/05/03 11:16:20;;;;;;;;;;;13.50;59.20;;;;;;4349267;28;10000796;-78
2021/05/03 11:18:48;;;;;;;;;;;13.50;55.30;;;;;;5048300;28;19967;-80
2021/05/03 11:21:16;;;;;;;;;;;13.40;51.40;;;;;;4679864;28;10000154;-79
2021/05/03 11:23:41;;;;;;;;;;;13.30;54.90;;;;;;5021488;28;20288;-78
2021/05/03 11:26:24;;;;;;;;;;;13.30;51.70;;;;;;5049085;28;19920;-74
2021/05/03 11:28:53;;;;;;;;;;;12.90;49.20;;;;;;5047926;28;19974;-79
2021/05/03 11:31:22;;;;;;;;;;;13.30;52.70;;;;;;5030117;28;19921;-79
2021/05/03 11:34:01;;;;;;;;;;;13.30;51.20;;;;;;5047649;28;19917;-79
2021/05/03 11:36:37;;;;;;;;;;;13.30;50.20;;;;;;5050273;28;19928;-80
2021/05/03 11:42:32;;;;;;;;;;;12.90;50.60;;;;;;5026398;28;19929;-74
2021/05/03 11:44:58;;;;;;;;;;;12.80;50.30;;;;;;5047059;28;20445;-85
2021/05/03 11:47:25;;;;;;;;;;;12.60;51.70;;;;;;4699134;28;10000625;-75
2021/05/03 11:49:50;;;;;;;;;;;12.50;53.10;;;;;;5013467;28;20338;-79
2021/05/03 11:52:24;;;;;;;;;;;12.60;54.70;;;;;;5043593;28;19921;-80
2021/05/03 11:54:49;;;;;;;;;;;13.00;54.30;;;;;;5045778;28;20485;-79
2021/05/03 11:57:17;;;;;;;;;;;13.40;55.00;;;;;;5029177;28;19928;-79
2021/05/03 11:59:42;;;;;;;;;;;13.70;55.10;;;;;;5047418;28;19921;-79
2021/05/03 12:02:11;;;;;;;;;;;13.70;50.20;;;;;;5045933;28;19972;-79
2021/05/03 12:04:40;;;;;;;;;;;13.70;50.40;;;;;;5046376;28;19978;-79
2021/05/03 12:07:22;;;;;;;;;;;13.60;49.60;;;;;;5034010;28;19931;-79
2021/05/03 12:10:02;;;;;;;;;;;13.90;53.00;;;;;;5033303;28;20301;-79
2021/05/03 12:13:00;;;;;;;;;;;13.90;51.70;;;;;;5046850;28;20421;-76
2021/05/03 12:15:26;;;;;;;;;;;13.90;51.10;;;;;;5001068;28;19960;-78
2021/05/03 12:17:52;;;;;;;;;;;13.70;49.90;;;;;;5029253;28;19935;-78
2021/05/03 12:20:35;;;;;;;;;;;13.60;49.50;;;;;;5047137;28;19928;-78
2021/05/03 12:23:06;;;;;;;;;;;13.60;52.50;;;;;;5030306;28;19917;-78
2021/05/03 12:25:51;;;;;;;;;;;13.50;50.70;;;;;;5046325;28;19920;-78
2021/05/03 12:28:18;;;;;;;;;;;13.50;50.50;;;;;;5046671;28;21751;-79
2021/05/03 12:30:43;;;;;;;;;;;13.40;51.20;;;;;;5046334;28;19927;-79
2021/05/03 12:33:19;;;;;;;;;;;13.50;52.10;;;;;;5029609;28;19963;-78
2021/05/03 12:35:45;;;;;;;;;;;13.60;51.50;;;;;;5019520;28;20024;-78
2021/05/03 12:38:17;;;;;;;;;;;13.30;48.10;;;;;;5046952;28;19920;-78
2021/05/03 12:40:42;;;;;;;;;;;13.60;51.80;;;;;;5046993;28;20081;-78
2021/05/03 12:43:08;;;;;;;;;;;13.40;49.70;;;;;;5046487;28;20440;-78
2021/05/03 12:53:43;;;;;;;;;;;13.80;50.00;;;;;;5045484;28;20361;-78
2021/05/03 12:56:32;;;;;;;;;;;14.00;53.20;;;;;;5030416;28;19916;-78
2021/05/03 13:04:22;;;;;;;;;;;14.10;47.10;;;;;;5045525;28;19950;-78
2021/05/03 13:29:14;;;;;;;;;;;13.80;47.70;;;;;;5000775;28;19921;-77
2021/05/03 13:31:44;;;;;;;;;;;13.80;48.40;;;;;;5012580;28;20243;-79
2021/05/03 13:34:12;;;;;;;;;;;14.10;51.30;;;;;;5032113;28;19949;-78
2021/05/03 13:36:38;;;;;;;;;;;13.90;49.90;;;;;;5028453;28;19963;-79
2021/05/03 13:39:05;;;;;;;;;;;13.80;49.20;;;;;;5016132;28;20856;-79
2021/05/03 13:41:36;;;;;;;;;;;13.80;50.60;;;;;;5045269;28;19928;-79
2021/05/03 13:44:04;;;;;;;;;;;13.90;51.30;;;;;;5045640;28;20669;-79
2021/05/03 13:46:30;;;;;;;;;;;14.00;49.20;;;;;;5046037;28;19979;-78
2021/05/03 13:48:58;;;;;;;;;;;14.00;47.80;;;;;;5044402;28;19925;-78
2021/05/03 13:51:24;;;;;;;;;;;14.00;50.20;;;;;;5045013;28;19920;-77
2021/05/03 13:53:50;;;;;;;;;;;14.10;52.00;;;;;;5027222;28;19916;-76
2021/05/03 13:56:15;;;;;;;;;;;13.80;47.70;;;;;;5044989;28;19931;-76
2021/05/03 13:58:41;;;;;;;;;;;13.90;50.80;;;;;;5045445;28;19920;-78
2021/05/03 14:01:06;;;;;;;;;;;13.70;47.60;;;;;;5014145;28;19952;-78
2021/05/03 14:03:32;;;;;;;;;;;13.70;51.00;;;;;;5044371;28;20582;-78
2021/05/03 14:06:02;;;;;;;;;;;13.70;48.40;;;;;;5045590;28;19928;-80
2021/05/03 14:08:29;;;;;;;;;;;13.70;48.20;;;;;;5027063;28;19952;-78
2021/05/03 14:10:54;;;;;;;;;;;13.90;50.30;;;;;;5026486;28;20392;-80
2021/05/03 14:13:20;;;;;;;;;;;13.70;47.90;;;;;;5025267;28;19917;-76
2021/05/03 14:15:47;;;;;;;;;;;13.70;47.70;;;;;;5045023;28;19921;-78
2021/05/03 14:18:12;;;;;;;;;;;13.60;48.00;;;;;;5045028;28;19982;-79
2021/05/03 14:20:38;;;;;;;;;;;13.50;47.30;;;;;;5045228;28;19920;-79
2021/05/03 14:23:04;;;;;;;;;;;13.50;47.70;;;;;;5045492;28;20559;-80
2021/05/03 14:25:32;;;;;;;;;;;13.60;50.00;;;;;;5046079;28;19913;-77
2021/05/03 14:28:00;;;;;;;;;;;13.60;48.20;;;;;;5045663;28;21996;-77
2021/05/03 14:31:14;;;;;;;;;;;13.80;49.80;;;;;;5045170;28;19987;-80
2021/05/03 14:35:39;;;;;;;;;;;13.90;49.60;;;;;;5045111;28;19921;-76
2021/05/03 14:38:07;;;;;;;;;;;13.90;47.70;;;;;;5045729;28;19920;-77
2021/05/03 14:40:35;;;;;;;;;;;13.80;47.60;;;;;;5026856;28;19924;-77
2021/05/03 14:43:04;;;;;;;;;;;13.90;52.00;;;;;;5045273;28;19923;-79
2021/05/03 14:45:34;;;;;;;;;;;13.70;47.60;;;;;;5025864;28;20567;-78
2021/05/03 14:48:17;;;;;;;;;;;13.90;49.50;;;;;;5045517;28;19917;-77
2021/05/03 14:55:55;;;;;;;;;;;14.00;50.50;;;;;;5050134;28;20035;-78
2021/05/03 14:58:23;;;;;;;;;;;14.00;49.00;;;;;;5050623;28;19921;-79
2021/05/03 15:00:51;;;;;;;;;;;14.00;48.10;;;;;;5050776;28;19921;-78
2021/05/03 15:03:16;;;;;;;;;;;14.00;48.40;;;;;;5049897;28;20492;-78
2021/05/03 15:05:44;;;;;;;;;;;14.00;49.60;;;;;;5051432;28;19928;-79
2021/05/03 15:08:11;;;;;;;;;;;14.10;50.80;;;;;;5049464;28;20289;-77
2021/05/03 15:10:39;;;;;;;;;;;14.10;50.60;;;;;;5047483;28;19916;-78
2021/05/03 15:13:13;;;;;;;;;;;14.10;49.50;;;;;;5049628;28;20004;-79
2021/05/03 15:23:19;;;;;;;;;;;13.70;48.20;;;;;;5048660;28;19982;-78
2021/05/03 15:25:51;;;;;;;;;;;13.60;48.80;;;;;;5047731;28;19925;-79
2021/05/03 15:35:52;;;;;;;;;;;13.50;48.80;;;;;;5030431;28;19917;-79
2021/05/03 15:38:18;;;;;;;;;;;13.40;48.70;;;;;;5028809;28;19921;-78
2021/05/03 15:40:43;;;;;;;;;;;13.40;48.80;;;;;;5048606;28;19917;-79
2021/05/03 15:43:15;;;;;;;;;;;13.40;50.80;;;;;;5048460;28;19932;-81
2021/05/03 15:45:47;;;;;;;;;;;13.40;49.00;;;;;;5047391;28;19917;-78
2021/05/03 15:48:13;;;;;;;;;;;13.50;53.90;;;;;;5029860;28;20336;-78
2021/05/03 15:50:38;;;;;;;;;;;13.40;49.90;;;;;;5015002;28;19921;-78
2021/05/03 15:53:06;;;;;;;;;;;13.50;51.50;;;;;;5016006;28;19927;-79